Time;durP1;ratioP1;P1;durP2;ratioP2;P2;SDS_P1;SDS_P2;PMS_P1;PMS_P2;Temp;Humidity;BMP_temperature;BMP_pressure;BME280_temperature;BME280_humidity;BME280_pressure;Samples;Min_cycle;Max_cycle;Signal;HPM_P1;HPM_P2
2022/06/21 00:00:13;;;;;;;1.90;1.67;;;19.40;99.90;;;;;;4989054;28;20912;-66
2022/06/21 00:02:39;;;;;;;3.43;2.90;;;19.60;99.90;;;;;;4988022;28;20507;-67
2022/06/21 00:05:12;;;;;;;3.70;2.20;;;18.60;99.90;;;;;;4989139;28;20428;-68
2022/06/21 00:07:37;;;;;;;2.63;2.17;;;18.30;99.90;;;;;;4987916;28;20411;-67
2022/06/21 00:10:05;;;;;;;2.50;1.90;;;18.30;99.90;;;;;;4969112;28;20405;-68
2022/06/21 00:12:31;;;;;;;3.17;2.40;;;18.40;99.90;;;;;;4969063;28;20801;-68
2022/06/21 00:14:56;;;;;;;3.03;2.60;;;18.50;99.90;;;;;;4974276;28;20411;-68
2022/06/21 00:17:22;;;;;;;2.67;1.97;;;19.70;99.90;;;;;;4977346;28;20207;-67
2022/06/21 00:19:49;;;;;;;3.60;2.60;;;20.10;99.90;;;;;;4988516;28;20170;-68
2022/06/21 00:22:18;;;;;;;2.83;2.03;;;19.80;99.90;;;;;;4988744;28;20173;-68
2022/06/21 00:24:44;;;;;;;2.10;1.80;;;;;;;;;;4988388;28;20470;-68
2022/06/21 00:27:16;;;;;;;2.30;2.10;;;18.50;99.90;;;;;;4987697;28;20400;-67
2022/06/21 00:29:43;;;;;;;3.53;2.33;;;17.70;99.90;;;;;;4988254;28;20408;-69
2022/06/21 00:32:12;;;;;;;2.67;1.83;;;17.40;99.90;;;;;;4990015;28;20483;-68
2022/06/21 00:34:38;;;;;;;2.53;2.33;;;17.80;99.90;;;;;;4991937;28;20436;-69
2022/06/21 00:37:04;;;;;;;2.87;2.57;;;17.90;99.90;;;;;;4991626;28;20758;-68
2022/06/21 00:39:29;;;;;;;4.83;2.33;;;18.20;99.90;;;;;;4991044;28;20248;-67
2022/06/21 00:42:02;;;;;;;2.93;2.10;;;18.30;99.90;;;;;;4991576;28;20197;-67
2022/06/21 00:44:44;;;;;;;2.10;1.90;;;18.40;99.90;;;;;;4992071;28;20574;-67
2022/06/21 00:47:17;;;;;;;3.20;1.90;;;17.90;99.90;;;;;;4991038;28;20463;-67
2022/06/21 00:49:56;;;;;;;2.60;2.10;;;18.60;99.90;;;;;;4991448;28;20420;-68
2022/06/21 00:53:00;;;;;;;3.70;1.70;;;18.20;99.90;;;;;;4990730;28;20416;-66
2022/06/21 00:55:45;;;;;;;3.63;2.00;;;;;;;;;;4972094;28;20444;-68
2022/06/21 00:58:14;;;;;;;2.10;1.80;;;18.40;99.90;;;;;;4970665;28;20919;-68
2022/06/21 01:01:00;;;;;;;4.73;2.17;;;18.20;99.90;;;;;;4971588;28;20503;-68
2022/06/21 01:03:36;;;;;;;4.73;1.83;;;17.90;99.90;;;;;;4971245;28;20505;-68
2022/06/21 01:06:18;;;;;;;2.67;1.90;;;18.00;99.90;;;;;;4972190;28;20736;-68
2022/06/21 01:08:49;;;;;;;3.03;2.17;;;17.40;99.90;;;;;;4988664;28;20422;-68
2022/06/21 01:11:16;;;;;;;8.20;2.00;;;;;;;;;;5010772;28;20833;-68
2022/06/21 01:13:47;;;;;;;2.33;1.77;;;17.70;99.90;;;;;;5010321;28;20519;-69
2022/06/21 01:16:13;;;;;;;2.73;1.80;;;17.90;99.90;;;;;;5010892;28;20565;-67
2022/06/21 01:18:41;;;;;;;2.40;2.00;;;17.80;99.90;;;;;;4996114;28;20451;-68
2022/06/21 01:21:09;;;;;;;2.33;1.70;;;17.40;99.90;;;;;;4989987;28;20784;-68
2022/06/21 01:23:59;;;;;;;2.00;1.70;;;17.80;99.90;;;;;;4990317;28;20404;-68
2022/06/21 01:26:42;;;;;;;6.20;2.10;;;19.50;99.90;;;;;;4991090;28;20425;-68
2022/06/21 01:29:21;;;;;;;3.37;2.00;;;19.20;99.90;;;;;;4989041;28;20891;-68
2022/06/21 01:31:48;;;;;;;2.50;1.80;;;18.70;99.90;;;;;;4990778;28;20412;-66
2022/06/21 01:34:23;;;;;;;4.70;3.00;;;19.00;99.90;;;;;;4990631;28;20591;-71
2022/06/21 01:37:10;;;;;;;5.73;2.37;;;19.10;99.90;;;;;;4990815;28;20454;-68
2022/06/21 01:40:16;;;;;;;6.10;4.03;;;19.60;99.90;;;;;;4990456;28;20869;-69
2022/06/21 01:42:49;;;;;;;2.07;1.53;;;18.80;98.80;;;;;;4985582;28;20415;-68
2022/06/21 01:47:50;;;;;;;3.07;2.30;;;18.20;97.80;;;;;;5025085;23;20673;-66
2022/06/21 01:50:16;;;;;;;2.10;1.80;;;18.10;97.60;;;;;;5009988;28;20218;-67
2022/06/21 01:52:45;;;;;;;3.37;2.67;;;;;;;;;;5009536;28;21221;-66
2022/06/21 01:55:18;;;;;;;2.60;1.90;;;17.80;87.20;;;;;;5009889;28;21088;-67
2022/06/21 01:57:45;;;;;;;4.20;2.10;;;17.60;99.90;;;;;;4969828;28;20464;-66
2022/06/21 02:00:11;;;;;;;2.43;2.10;;;17.30;85.10;;;;;;4970095;28;20410;-69
2022/06/21 02:02:49;;;;;;;2.40;2.00;;;17.30;96.00;;;;;;4970040;28;20423;-69
2022/06/21 02:05:20;;;;;;;4.53;1.93;;;17.30;95.50;;;;;;4970812;28;20905;-69
2022/06/21 02:07:49;;;;;;;4.10;2.90;;;17.20;96.60;;;;;;4971578;28;20401;-67
2022/06/21 02:10:15;;;;;;;2.23;2.03;;;;;;;;;;5009170;28;20419;-67
2022/06/21 02:12:59;;;;;;;2.33;1.97;;;17.50;90.00;;;;;;5009039;28;20522;-67
2022/06/21 02:15:33;;;;;;;2.43;2.10;;;17.40;96.90;;;;;;5009733;28;20585;-67
2022/06/21 02:18:01;;;;;;;3.83;1.87;;;17.40;97.00;;;;;;5000258;28;20455;-67
2022/06/21 02:20:37;;;;;;;2.40;1.80;;;17.30;97.00;;;;;;4989649;28;20420;-67
2022/06/21 02:23:05;;;;;;;2.30;1.80;;;16.90;97.00;;;;;;4989377;28;20848;-67
2022/06/21 02:25:32;;;;;;;3.40;1.93;;;16.70;98.50;;;;;;4989699;28;20423;-67
2022/06/21 02:28:05;;;;;;;3.43;2.37;;;16.70;99.20;;;;;;4988571;28;20486;-67
2022/06/21 02:30:31;;;;;;;3.20;2.60;;;16.80;99.80;;;;;;4989024;28;20515;-67
2022/06/21 02:33:00;;;;;;;4.17;2.30;;;17.40;99.70;;;;;;4989131;28;20884;-67
2022/06/21 02:35:36;;;;;;;2.73;2.10;;;17.80;98.80;;;;;;4989571;28;20260;-67
2022/06/21 02:38:17;;;;;;;2.10;1.83;;;17.40;97.80;;;;;;4988585;28;20447;-67
2022/06/21 02:40:48;;;;;;;3.07;2.30;;;18.00;98.10;;;;;;4990150;28;20408;-66
2022/06/21 02:43:21;;;;;;;3.20;1.90;;;17.70;97.10;;;;;;4989218;28;20487;-67
2022/06/21 02:45:59;;;;;;;5.33;2.00;;;17.90;98.40;;;;;;4989630;28;20451;-66
2022/06/21 02:48:29;;;;;;;4.83;2.20;;;18.30;97.10;;;;;;4988386;28;20439;-66
2022/06/21 02:51:01;;;;;;;5.40;2.87;;;18.20;96.60;;;;;;4989387;28;20443;-66
2022/06/21 02:53:32;;;;;;;8.73;1.80;;;18.30;96.90;;;;;;4988468;28;20443;-65
2022/06/21 02:56:33;;;;;;;5.60;2.47;;;18.80;97.30;;;;;;4989869;28;20431;-66
2022/06/21 02:59:02;;;;;;;2.30;2.10;;;19.00;95.90;;;;;;4988006;28;20447;-65
2022/06/21 03:01:33;;;;;;;4.10;2.30;;;18.80;95.50;;;;;;4989410;28;20404;-65
2022/06/21 03:03:59;;;;;;;5.20;2.20;;;19.00;94.70;;;;;;4988905;28;20395;-65
2022/06/21 03:06:26;;;;;;;3.33;2.60;;;18.90;93.90;;;;;;4989374;28;20428;-65
2022/06/21 03:09:01;;;;;;;5.40;2.23;;;19.30;94.10;;;;;;4998286;28;20485;-65
2022/06/21 03:11:30;;;;;;;7.10;2.70;;;19.30;93.40;;;;;;5009759;28;20482;-66
2022/06/21 03:14:05;;;;;;;6.10;2.13;;;19.20;92.60;;;;;;5008887;28;20411;-66
2022/06/21 03:16:31;;;;;;;3.57;2.50;;;18.40;91.80;;;;;;5008955;28;20439;-66
2022/06/21 03:19:01;;;;;;;5.63;2.40;;;18.80;92.80;;;;;;4992358;28;20614;-68
2022/06/21 03:21:31;;;;;;;4.53;2.43;;;19.40;92.90;;;;;;4989503;28;20404;-65
2022/06/21 03:23:58;;;;;;;5.23;2.10;;;19.60;91.80;;;;;;4987232;28;20435;-65
2022/06/21 03:26:26;;;;;;;3.10;2.70;;;19.00;89.20;;;;;;4989225;28;20424;-65
2022/06/21 03:28:52;;;;;;;3.27;2.00;;;19.50;99.40;;;;;;4987532;28;20741;-67
2022/06/21 03:31:26;;;;;;;2.83;2.27;;;19.50;90.30;;;;;;4989194;28;20438;-66
2022/06/21 03:34:01;;;;;;;3.73;2.40;;;19.10;88.20;;;;;;4988513;28;20734;-67
2022/06/21 03:36:27;;;;;;;3.47;2.37;;;19.20;86.70;;;;;;4989192;28;20455;-67
2022/06/21 03:39:15;;;;;;;2.60;2.30;;;18.80;86.40;;;;;;4987774;28;20889;-67
2022/06/21 03:41:44;;;;;;;7.00;2.80;;;18.60;86.80;;;;;;4987398;28;20640;-67
2022/06/21 03:44:13;;;;;;;2.90;2.07;;;19.20;88.90;;;;;;4989010;28;20469;-67
2022/06/21 03:46:48;;;;;;;13.33;2.83;;;19.00;87.50;;;;;;4989455;28;20527;-68
2022/06/21 03:49:28;;;;;;;4.90;2.13;;;19.40;86.70;;;;;;4988226;28;20445;-67
2022/06/21 03:51:55;;;;;;;5.20;1.97;;;19.40;83.60;;;;;;4988956;28;20985;-67
2022/06/21 03:54:35;;;;;;;3.67;2.03;;;18.60;81.60;;;;;;4988136;28;20423;-67
2022/06/21 03:57:14;;;;;;;2.70;2.40;;;18.00;81.20;;;;;;4987879;28;20539;-66
2022/06/21 03:59:47;;;;;;;3.67;2.17;;;18.20;86.20;;;;;;4988491;28;20467;-66
2022/06/21 04:02:19;;;;;;;5.00;2.70;;;18.10;86.90;;;;;;4988013;28;20389;-68
2022/06/21 04:04:55;;;;;;;2.80;2.40;;;18.60;88.20;;;;;;4988793;28;20458;-68
2022/06/21 04:07:26;;;;;;;6.03;2.40;;;18.50;87.30;;;;;;4990701;28;20465;-68
2022/06/21 04:10:16;;;;;;;2.73;2.37;;;18.30;88.80;;;;;;5009845;28;20414;-68
2022/06/21 04:12:53;;;;;;;2.80;2.10;;;18.30;87.10;;;;;;5011021;28;20891;-67
2022/06/21 04:15:42;;;;;;;4.90;2.77;;;18.30;88.80;;;;;;5011981;28;20399;-67
2022/06/21 04:18:14;;;;;;;5.57;2.23;;;18.30;87.90;;;;;;5001196;28;20492;-66
2022/06/21 04:21:10;;;;;;;3.67;2.60;;;17.90;89.60;;;;;;4992262;28;20406;-66
2022/06/21 04:23:57;;;;;;;5.00;3.40;;;17.70;90.00;;;;;;4982216;28;20507;-66
2022/06/21 04:26:35;;;;;;;4.17;3.37;;;17.70;90.00;;;;;;4992045;28;20602;-66
2022/06/21 04:29:10;;;;;;;6.43;2.83;;;17.70;90.50;;;;;;4986122;28;20411;-65
2022/06/21 04:32:01;;;;;;;5.97;2.70;;;18.20;77.50;;;;;;4989927;28;20411;-65
2022/06/21 04:34:35;;;;;;;4.03;2.63;;;17.20;70.80;;;;;;5004063;28;20427;-66
2022/06/21 04:37:09;;;;;;;2.77;2.27;;;17.00;86.50;;;;;;5014860;28;20430;-67
2022/06/21 04:40:15;;;;;;;3.73;3.07;;;17.20;90.90;;;;;;5013439;28;20399;-66
2022/06/21 04:42:52;;;;;;;3.70;3.07;;;17.40;90.70;;;;;;5012649;28;20418;-67
2022/06/21 04:45:30;;;;;;;4.80;3.00;;;17.20;75.70;;;;;;5013024;28;20474;-66
2022/06/21 04:48:13;;;;;;;2.60;2.30;;;16.70;79.30;;;;;;5012548;28;20439;-66
2022/06/21 04:50:48;;;;;;;3.20;2.47;;;16.70;93.30;;;;;;5019501;28;20469;-66
2022/06/21 04:53:31;;;;;;;5.60;2.80;;;17.90;94.40;;;;;;5016242;28;20565;-66
2022/06/21 04:56:07;;;;;;;3.87;2.80;;;18.10;92.90;;;;;;5012900;28;20523;-67
2022/06/21 04:58:38;;;;;;;3.47;3.17;;;18.20;92.20;;;;;;5007529;28;20512;-67
2022/06/21 05:01:29;;;;;;;3.57;2.13;;;18.70;75.30;;;;;;5005774;28;20925;-67
2022/06/21 05:03:53;;;;;;;5.13;2.73;;;17.70;72.60;;;;;;4987487;28;20454;-66
2022/06/21 05:06:25;;;;;;;4.17;2.43;;;17.30;73.30;;;;;;4988019;28;20443;-67
2022/06/21 05:08:52;;;;;;;2.80;2.27;;;;;;;;;;5008761;28;20970;-67
2022/06/21 05:11:18;;;;;;;2.80;2.60;;;17.50;75.20;;;;;;5028710;28;20402;-67
2022/06/21 05:13:50;;;;;;;2.80;2.40;;;17.30;73.80;;;;;;5028029;28;20402;-67
2022/06/21 05:16:28;;;;;;;2.30;2.10;;;18.10;77.10;;;;;;5028144;28;20892;-69
2022/06/21 05:19:25;;;;;;;3.63;2.37;;;17.90;90.80;;;;;;5012397;28;20536;-67
2022/06/21 05:21:55;;;;;;;3.70;2.30;;;17.80;72.50;;;;;;5006331;28;20435;-67
2022/06/21 05:24:21;;;;;;;3.70;2.37;;;17.70;74.10;;;;;;5007249;28;20414;-67
2022/06/21 05:27:14;;;;;;;3.80;2.97;;;17.60;72.00;;;;;;5000932;28;20861;-68
2022/06/21 05:29:56;;;;;;;4.37;2.43;;;17.50;89.60;;;;;;5004058;28;20510;-68
2022/06/21 05:32:27;;;;;;;2.40;2.20;;;17.80;87.90;;;;;;5003236;28;20458;-68
2022/06/21 05:34:57;;;;;;;7.53;2.90;;;17.90;88.70;;;;;;5007318;28;20431;-67
2022/06/21 05:37:35;;;;;;;5.63;2.83;;;17.10;72.40;;;;;;5004551;28;20455;-68
2022/06/21 05:40:24;;;;;;;3.20;2.43;;;17.10;76.40;;;;;;4987785;28;20459;-68
2022/06/21 05:42:50;;;;;;;5.03;2.70;;;17.10;90.90;;;;;;5002862;28;20455;-68
2022/06/21 05:45:16;;;;;;;5.33;2.67;;;17.30;92.00;;;;;;5006841;28;20423;-66
2022/06/21 05:47:55;;;;;;;2.97;2.50;;;17.90;91.80;;;;;;5005753;28;20450;-68
2022/06/21 05:50:26;;;;;;;3.30;2.90;;;17.80;76.20;;;;;;5005934;28;20419;-68
2022/06/21 05:52:55;;;;;;;5.90;2.90;;;17.70;75.90;;;;;;4993536;28;20923;-67
2022/06/21 05:55:43;;;;;;;6.63;2.63;;;17.60;74.60;;;;;;5005318;28;20423;-68
2022/06/21 05:58:21;;;;;;;2.70;2.50;;;17.90;74.60;;;;;;5005642;28;20465;-68
2022/06/21 06:01:09;;;;;;;2.90;2.13;;;17.60;72.60;;;;;;5006620;28;20562;-68
2022/06/21 06:03:46;;;;;;;10.60;3.33;;;17.40;72.30;;;;;;5005632;28;20421;-67
2022/06/21 06:06:16;;;;;;;3.83;2.20;;;17.30;68.70;;;;;;5006860;28;20845;-68
2022/06/21 06:08:46;;;;;;;3.93;2.40;;;17.20;85.60;;;;;;5002731;28;20712;-70
2022/06/21 06:11:57;;;;;;;3.10;1.80;;;17.20;83.50;;;;;;5006941;28;20407;-68
2022/06/21 06:14:19;;;;;;;2.33;2.13;;;17.70;85.30;;;;;;5006094;28;20443;-68
2022/06/21 06:16:48;;;;;;;3.80;2.30;;;18.10;90.20;;;;;;5006586;28;20435;-67
2022/06/21 06:19:41;;;;;;;5.63;2.77;;;18.50;90.80;;;;;;5003274;28;20458;-69
2022/06/21 06:22:07;;;;;;;5.33;2.43;;;;;;;;;;5006349;28;20423;-69
2022/06/21 06:24:41;;;;;;;3.43;2.00;;;;;;;;;;5006078;28;20556;-67
2022/06/21 06:27:20;;;;;;;2.77;1.83;;;;;;;;;;5006433;28;20431;-67
2022/06/21 06:29:47;;;;;;;11.23;2.43;;;18.80;58.80;;;;;;5005665;28;20781;-67
2022/06/21 06:32:21;;;;;;;3.23;1.90;;;19.10;77.40;;;;;;5008818;28;20423;-68
2022/06/21 06:34:49;;;;;;;3.40;2.00;;;;;;;;;;5008757;28;20888;-67
2022/06/21 06:37:30;;;;;;;4.10;2.47;;;19.10;53.80;;;;;;5008364;28;20441;-67
2022/06/21 06:39:56;;;;;;;3.03;2.73;;;19.20;67.40;;;;;;5008011;28;20473;-68
2022/06/21 06:42:26;;;;;;;3.70;2.00;;;19.50;64.30;;;;;;5008568;28;20407;-67
2022/06/21 06:45:06;;;;;;;4.00;1.93;;;;;;;;;;5017567;28;20484;-68
2022/06/21 06:47:41;;;;;;;7.90;2.13;;;19.80;49.90;;;;;;5026799;28;20465;-69
2022/06/21 06:50:13;;;;;;;2.63;1.70;;;;;;;;;;5026511;28;20451;-70
2022/06/21 06:52:42;;;;;;;3.30;2.00;;;19.90;44.70;;;;;;5007492;28;20509;-70
2022/06/21 06:55:11;;;;;;;3.03;1.97;;;;;;;;;;5007705;28;20418;-69
2022/06/21 06:58:01;;;;;;;4.07;1.70;;;20.00;42.10;;;;;;5007789;28;20459;-70
2022/06/21 07:01:05;;;;;;;4.87;2.40;;;19.50;50.60;;;;;;5008053;28;20389;-69
2022/06/21 07:03:34;;;;;;;2.90;2.20;;;19.70;49.40;;;;;;4966384;28;20536;-69
2022/06/21 07:06:02;;;;;;;2.80;1.73;;;20.30;49.50;;;;;;4984609;28;20534;-70
2022/06/21 07:08:47;;;;;;;3.00;2.10;;;20.20;47.60;;;;;;4987473;28;20427;-70
2022/06/21 07:11:53;;;;;;;3.70;2.63;;;20.30;47.30;;;;;;4988882;28;20495;-68
2022/06/21 07:14:21;;;;;;;4.80;2.00;;;;;;;;;;4958247;28;20486;-70
2022/06/21 07:16:54;;;;;;;6.37;2.50;;;21.10;36.50;;;;;;4988532;28;20488;-70
2022/06/21 07:19:21;;;;;;;7.47;2.40;;;;;;;;;;5006003;28;20884;-70
2022/06/21 07:21:47;;;;;;;4.60;2.03;;;21.20;40.70;;;;;;5008446;28;20410;-70
2022/06/21 07:24:18;;;;;;;3.50;1.80;;;21.00;41.30;;;;;;5007379;28;20884;-69
2022/06/21 07:26:51;;;;;;;3.47;2.20;;;21.00;29.60;;;;;;5008352;28;20717;-69
2022/06/21 07:29:29;;;;;;;7.50;2.17;;;21.00;41.10;;;;;;5007165;28;20414;-68
2022/06/21 07:32:18;;;;;;;5.27;1.93;;;20.60;26.80;;;;;;5008562;28;20395;-69
2022/06/21 07:34:47;;;;;;;4.70;2.90;;;;;;;;;;5008025;28;20708;-69
2022/06/21 07:37:18;;;;;;;3.40;2.17;;;;;;;;;;5007933;28;20450;-70
2022/06/21 07:40:00;;;;;;;4.30;2.90;;;20.60;25.10;;;;;;5007786;28;20494;-69
2022/06/21 07:42:54;;;;;;;6.23;2.10;;;21.10;34.90;;;;;;5011912;28;20444;-69
2022/06/21 07:45:44;;;;;;;9.00;2.90;;;21.00;34.60;;;;;;5026345;28;20718;-69
2022/06/21 07:48:13;;;;;;;3.70;2.10;;;;;;;;;;5030323;28;20513;-69
2022/06/21 07:50:50;;;;;;;4.53;3.00;;;21.30;23.30;;;;;;5027407;28;20506;-69
2022/06/21 07:53:43;;;;;;;5.27;2.33;;;21.40;31.50;;;;;;5010824;28;20407;-69
2022/06/21 07:56:27;;;;;;;3.50;2.30;;;21.00;21.00;;;;;;5011787;28;20435;-69
2022/06/21 07:59:03;;;;;;;7.93;3.43;;;21.10;30.00;;;;;;5010558;28;20526;-69
2022/06/21 08:07:36;;;;;;;6.47;3.10;;;21.10;31.70;;;;;;5010904;28;20800;-68
2022/06/21 08:10:08;;;;;;;4.47;3.30;;;;;;;;;;5011833;28;20407;-68
2022/06/21 08:12:34;;;;;;;3.10;2.20;;;21.10;22.00;;;;;;5011630;28;20422;-68
2022/06/21 08:15:00;;;;;;;8.13;3.33;;;20.90;30.00;;;;;;5011574;28;20407;-68
2022/06/21 08:17:40;;;;;;;13.53;4.30;;;20.90;21.80;;;;;;5010961;28;20196;-68
2022/06/21 08:20:10;;;;;;;6.90;3.53;;;20.70;31.10;;;;;;5011668;28;20412;-68
2022/06/21 08:22:35;;;;;;;7.70;3.47;;;20.70;23.50;;;;;;5010939;28;20926;-68
2022/06/21 08:25:07;;;;;;;11.93;3.53;;;20.70;23.20;;;;;;5011883;28;20411;-69
2022/06/21 08:27:59;;;;;;;5.70;2.70;;;20.90;33.90;;;;;;5010857;28;20200;-69
2022/06/21 08:30:35;;;;;;;6.37;3.87;;;20.90;46.20;;;;;;5011306;28;20407;-69
2022/06/21 08:33:08;;;;;;;4.63;3.67;;;20.80;25.10;;;;;;5010463;28;20402;-69
2022/06/21 08:35:57;;;;;;;7.20;4.20;;;;;;;;;;5012983;28;20487;-69
2022/06/21 08:38:30;;;;;;;5.70;3.73;;;20.80;26.60;;;;;;5000402;28;20801;-69
2022/06/21 08:40:59;;;;;;;5.60;3.60;;;21.00;38.00;;;;;;5012434;28;20751;-69
2022/06/21 08:44:08;;;;;;;7.13;5.00;;;21.10;38.50;;;;;;5015140;28;20414;-69
2022/06/21 08:46:43;;;;;;;7.93;3.60;;;20.90;26.80;;;;;;4918055;29;20482;-69
2022/06/21 08:49:46;;;;;;;10.07;4.40;;;21.00;38.80;;;;;;4984743;28;20434;-69
2022/06/21 08:52:36;;;;;;;5.37;4.00;;;20.90;29.80;;;;;;4986107;28;20967;-69
2022/06/21 08:55:09;;;;;;;4.67;3.50;;;20.80;53.90;;;;;;5011329;28;20404;-69
2022/06/21 08:58:09;;;;;;;5.53;4.00;;;21.30;30.30;;;;;;5010291;28;20526;-69
2022/06/21 09:00:59;;;;;;;6.53;3.50;;;21.60;29.30;;;;;;5011259;28;20400;-69
2022/06/21 09:03:55;;;;;;;5.70;3.07;;;21.50;29.00;;;;;;5010565;28;20888;-69
2022/06/21 09:06:43;;;;;;;10.33;3.03;;;;;;;;;;5011352;28;20415;-68
2022/06/21 09:09:37;;;;;;;6.33;3.40;;;21.50;28.40;;;;;;5010056;28;21403;-70
2022/06/21 09:12:06;;;;;;;6.20;3.43;;;;;;;;;;5011117;28;20430;-70
2022/06/21 09:15:09;;;;;;;7.47;4.13;;;21.50;29.40;;;;;;5010416;28;20410;-70
2022/06/21 09:17:44;;;;;;;6.97;4.03;;;21.50;40.70;;;;;;5009407;28;20434;-70
2022/06/21 09:20:31;;;;;;;5.67;3.90;;;21.10;40.60;;;;;;5010630;28;21151;-71
2022/06/21 09:23:14;;;;;;;4.70;4.07;;;21.40;41.60;;;;;;5009729;28;20637;-71
2022/06/21 09:25:59;;;;;;;8.73;3.27;;;21.70;42.70;;;;;;5011138;28;20425;-70
2022/06/21 09:28:42;;;;;;;6.07;3.60;;;21.80;30.00;;;;;;5009459;28;20729;-71
2022/06/21 09:31:31;;;;;;;8.10;3.03;;;21.80;40.90;;;;;;5010653;28;20427;-71
2022/06/21 09:34:04;;;;;;;5.30;3.97;;;22.10;40.10;;;;;;5009524;28;20710;-70
2022/06/21 09:37:09;;;;;;;5.73;3.10;;;22.40;40.90;;;;;;5010236;28;20435;-69
2022/06/21 09:39:46;;;;;;;4.00;3.60;;;22.00;38.80;;;;;;4998204;28;20469;-69
2022/06/21 09:42:14;;;;;;;5.10;3.20;;;21.70;37.10;;;;;;5010314;28;20414;-69
2022/06/21 09:44:47;;;;;;;11.33;3.50;;;22.00;38.40;;;;;;5011434;28;20402;-71
2022/06/21 09:47:21;;;;;;;5.27;3.83;;;22.00;28.50;;;;;;5027101;28;20527;-68
2022/06/21 09:50:22;;;;;;;6.67;4.80;;;22.00;38.80;;;;;;5026476;28;20925;-70
2022/06/21 09:53:06;;;;;;;4.13;3.73;;;21.80;38.50;;;;;;4983064;28;20423;-70
2022/06/21 09:55:48;;;;;;;4.77;4.30;;;22.00;30.20;;;;;;4990569;28;20910;-69
2022/06/21 09:59:01;;;;;;;7.40;4.53;;;22.10;30.00;;;;;;4989229;28;20827;-70
2022/06/21 10:01:46;;;;;;;11.90;5.40;;;22.40;43.40;;;;;;4967473;28;20416;-70
2022/06/21 10:04:28;;;;;;;8.17;6.10;;;22.80;44.10;;;;;;4989973;28;20718;-69
2022/06/21 10:06:56;;;;;;;5.13;4.73;;;22.60;43.70;;;;;;4990089;28;20424;-69
2022/06/21 10:09:28;;;;;;;5.67;5.07;;;22.50;45.50;;;;;;4989162;28;20408;-68
2022/06/21 10:12:07;;;;;;;6.37;5.77;;;22.60;46.30;;;;;;4990726;28;20407;-71
2022/06/21 10:14:51;;;;;;;8.73;7.27;;;22.80;47.80;;;;;;4989873;28;20562;-71
2022/06/21 10:17:59;;;;;;;9.97;6.17;;;22.90;49.20;;;;;;4991632;28;20432;-71
2022/06/21 10:20:25;;;;;;;6.80;5.80;;;23.20;50.50;;;;;;5009838;28;20419;-71
2022/06/21 10:23:06;;;;;;;7.57;5.83;;;23.00;51.20;;;;;;5009585;28;20410;-72
2022/06/21 10:25:58;;;;;;;6.20;5.23;;;22.90;52.10;;;;;;5010077;28;20203;-70
2022/06/21 10:28:29;;;;;;;9.90;6.43;;;22.70;53.90;;;;;;5008878;28;20439;-70
2022/06/21 10:31:22;;;;;;;6.80;6.10;;;22.60;55.00;;;;;;5009552;28;20816;-69
2022/06/21 10:33:57;;;;;;;7.13;5.93;;;22.80;58.20;;;;;;5001645;28;20427;-69
2022/06/21 10:36:38;;;;;;;7.10;5.17;;;23.40;59.90;;;;;;5009812;28;20450;-70
2022/06/21 10:39:35;;;;;;;5.90;5.00;;;22.60;50.50;;;;;;5008340;28;20453;-69
2022/06/21 10:44:51;;;;;;;6.13;5.30;;;23.00;65.60;;;;;;5018654;28;20436;-70
2022/06/21 10:47:29;;;;;;;13.03;6.57;;;23.50;68.60;;;;;;5028303;28;20468;-70
2022/06/21 10:50:27;;;;;;;8.40;6.40;;;23.40;71.70;;;;;;5029155;28;20875;-69
2022/06/21 10:53:16;;;;;;;7.97;6.80;;;23.20;73.60;;;;;;5009109;28;20469;-71
2022/06/21 10:55:47;;;;;;;11.13;6.73;;;23.40;76.30;;;;;;4982417;28;20435;-70
2022/06/21 10:58:51;;;;;;;11.30;9.60;;;23.80;78.40;;;;;;5008014;28;20541;-70
2022/06/21 11:01:32;;;;;;;12.83;7.80;;;23.60;79.00;;;;;;4929984;29;20411;-69
2022/06/21 11:04:45;;;;;;;8.53;7.70;;;23.20;82.00;;;;;;5002073;28;20413;-70
2022/06/21 11:07:33;;;;;;;8.60;7.30;;;23.30;85.20;;;;;;4964662;28;20438;-69
2022/06/21 11:10:09;;;;;;;8.57;7.67;;;23.70;88.90;;;;;;5007586;28;20418;-70
2022/06/21 11:12:56;;;;;;;8.13;7.00;;;23.60;90.00;;;;;;5009388;28;20775;-70
2022/06/21 11:15:24;;;;;;;8.17;6.67;;;23.50;90.60;;;;;;5008587;28;20483;-70
2022/06/21 11:18:11;;;;;;;8.30;7.13;;;23.50;91.10;;;;;;5008313;28;20458;-70
2022/06/21 11:21:11;;;;;;;8.17;6.37;;;23.40;91.90;;;;;;5009377;28;20400;-70
2022/06/21 11:23:54;;;;;;;10.50;6.93;;;23.60;92.70;;;;;;5008249;28;20928;-69
2022/06/21 11:26:26;;;;;;;13.50;6.70;;;23.60;93.30;;;;;;5009464;28;20481;-70
2022/06/21 11:29:23;;;;;;;6.90;6.30;;;24.00;94.30;;;;;;5007739;28;20409;-70
2022/06/21 11:32:20;;;;;;;8.53;6.83;;;23.90;93.80;;;;;;5008823;28;20412;-72
2022/06/21 11:35:11;;;;;;;7.93;7.10;;;24.10;94.60;;;;;;4996512;28;20434;-70
2022/06/21 11:37:48;;;;;;;8.40;7.20;;;24.30;94.80;;;;;;5007784;28;20457;-71
2022/06/21 11:40:13;;;;;;;9.13;7.83;;;24.50;95.10;;;;;;5009025;28;20771;-71
2022/06/21 11:42:52;;;;;;;7.20;6.60;;;24.70;94.90;;;;;;5008386;28;20407;-71
2022/06/21 11:45:48;;;;;;;7.97;7.27;;;24.40;99.90;;;;;;5022157;28;20205;-70
2022/06/21 11:48:21;;;;;;;7.87;6.60;;;24.10;94.00;;;;;;5027086;28;20437;-70
2022/06/21 11:51:05;;;;;;;9.43;8.53;;;23.90;94.30;;;;;;5022940;28;20430;-74
2022/06/21 11:53:30;;;;;;;8.23;7.43;;;23.70;95.20;;;;;;5008181;28;20403;-69
2022/06/21 11:56:33;;;;;;;10.43;7.27;;;23.70;95.00;;;;;;5004031;28;20435;-69
2022/06/21 11:59:37;;;;;;;7.70;6.17;;;23.90;96.30;;;;;;5007623;28;20257;-69
2022/06/21 12:02:09;;;;;;;9.67;8.13;;;24.10;96.70;;;;;;5009092;28;20909;-69
2022/06/21 12:04:48;;;;;;;7.27;6.67;;;24.20;96.80;;;;;;5008021;28;20411;-69
2022/06/21 12:07:39;;;;;;;8.17;6.60;;;24.10;96.80;;;;;;5008318;28;20514;-70
2022/06/21 12:10:26;;;;;;;9.20;6.40;;;24.00;97.60;;;;;;5008388;28;20395;-70
2022/06/21 12:13:11;;;;;;;7.40;6.70;;;24.10;98.30;;;;;;5008092;28;20729;-71
2022/06/21 12:15:59;;;;;;;8.13;7.33;;;24.10;98.70;;;;;;5008582;28;20425;-69
2022/06/21 12:18:29;;;;;;;10.50;7.37;;;24.40;99.20;;;;;;5007039;28;20751;-70
2022/06/21 12:21:10;;;;;;;8.73;7.23;;;24.50;99.30;;;;;;5008202;28;20411;-69
2022/06/21 12:23:45;;;;;;;7.97;7.17;;;24.40;99.50;;;;;;5007907;28;20433;-71
2022/06/21 12:26:17;;;;;;;9.20;8.37;;;24.40;99.80;;;;;;5008407;28;20993;-71
2022/06/21 12:28:43;;;;;;;8.50;6.30;;;24.10;91.60;;;;;;5009157;28;20560;-70
2022/06/21 12:31:22;;;;;;;7.50;6.80;;;24.00;99.90;;;;;;5012082;28;20418;-70
2022/06/21 12:33:53;;;;;;;12.97;8.40;;;24.10;99.90;;;;;;5011626;28;20483;-69
2022/06/21 12:36:34;;;;;;;7.87;7.03;;;24.20;99.90;;;;;;5012536;28;20439;-70
2022/06/21 12:39:10;;;;;;;11.67;7.70;;;24.30;99.90;;;;;;5011025;28;20469;-71
2022/06/21 12:41:54;;;;;;;8.43;6.90;;;;;;;;;;5010681;28;20418;-71
2022/06/21 12:45:08;;;;;;;7.43;6.60;;;24.80;94.00;;;;;;5017119;28;20481;-69
2022/06/21 12:48:15;;;;;;;9.13;7.67;;;24.40;94.20;;;;;;4994790;28;20453;-69
2022/06/21 12:51:04;;;;;;;10.03;8.40;;;24.30;94.50;;;;;;5016933;28;21012;-72
2022/06/21 12:53:40;;;;;;;16.83;8.73;;;24.20;99.90;;;;;;5010409;28;20447;-70
2022/06/21 12:56:09;;;;;;;11.40;8.80;;;24.50;99.90;;;;;;5011312;28;20419;-71
2022/06/21 12:58:43;;;;;;;9.60;7.83;;;24.60;95.40;;;;;;5007444;28;20803;-71
2022/06/21 13:01:21;;;;;;;13.30;9.30;;;24.50;99.90;;;;;;5010931;28;20398;-70
2022/06/21 13:04:08;;;;;;;11.33;8.40;;;24.50;99.90;;;;;;5008529;28;20418;-71
2022/06/21 13:06:48;;;;;;;8.83;7.80;;;24.60;99.90;;;;;;5010640;28;20514;-69
2022/06/21 13:09:34;;;;;;;9.63;7.37;;;24.80;99.90;;;;;;5009648;28;20450;-71
2022/06/21 13:12:02;;;;;;;10.63;9.10;;;;;;;;;;5011251;28;20419;-70
2022/06/21 13:15:19;;;;;;;9.17;7.27;;;24.90;96.20;;;;;;5010355;28;20403;-70
2022/06/21 13:18:03;;;;;;;9.43;7.70;;;;;;;;;;4987662;28;20443;-70
2022/06/21 13:20:29;;;;;;;8.50;7.60;;;;;;;;;;4988604;28;20896;-69
2022/06/21 13:22:55;;;;;;;12.43;8.60;;;;;;;;;;4988220;28;20483;-70
2022/06/21 13:25:47;;;;;;;8.30;7.50;;;25.00;96.70;;;;;;4988471;28;20404;-71
2022/06/21 13:28:33;;;;;;;9.87;7.53;;;25.10;99.90;;;;;;4987508;28;20556;-70
2022/06/21 13:31:04;;;;;;;10.40;8.00;;;25.20;96.40;;;;;;4988341;28;20464;-70
2022/06/21 13:33:32;;;;;;;11.13;7.37;;;25.00;96.70;;;;;;4986980;28;20408;-69
2022/06/21 13:36:05;;;;;;;9.07;7.90;;;25.10;96.80;;;;;;4988398;28;20432;-70
2022/06/21 13:38:37;;;;;;;8.90;8.10;;;25.10;96.40;;;;;;4986400;28;20530;-70
2022/06/21 13:44:13;;;;;;;7.30;6.60;;;25.10;96.70;;;;;;4988097;28;20452;-69
2022/06/21 13:46:50;;;;;;;8.37;7.40;;;25.20;96.40;;;;;;4988010;28;20885;-69
2022/06/21 13:49:26;;;;;;;8.20;7.50;;;25.20;99.90;;;;;;5006823;28;20414;-71
2022/06/21 13:52:06;;;;;;;8.93;8.20;;;25.30;96.70;;;;;;5009947;28;20419;-71
2022/06/21 13:54:36;;;;;;;9.03;7.60;;;;;;;;;;5008494;28;20832;-72
2022/06/21 13:57:14;;;;;;;17.00;9.60;;;25.50;96.50;;;;;;5009415;28;20538;-70
2022/06/21 13:59:50;;;;;;;8.93;8.00;;;25.60;95.60;;;;;;5008730;28;20453;-72
2022/06/21 14:02:32;;;;;;;9.33;8.23;;;;;;;;;;5009927;28;20379;-70
2022/06/21 14:05:11;;;;;;;9.53;7.73;;;25.50;96.20;;;;;;5009772;28;20517;-72